Viroqua, Wisconsin
Current Conditions -  °F | °C
As of 5:54 AM on Friday 19 Dec 2014 (Local Time) from KY51 Reporting Station
Overcast Overcast  
Wind Chill: 23°   Ceiling: 1200
Heat Index: 23°   Visibility: 10mi
Dew Point: 19°   Wind: 0mph
Humidity: 87%   Direction: NA
Pressure: 30.25"   Gusts: NA
Location:  43.56°N, 90.89°W
Report Text: KY51 191154Z AUTO 00000KT 10SM OVC012 M05/M07 A3025 RMK AO1 T10521070 11050 21053
Loading
Personal Weather Stations






























Interactive Weather Map New forecast layout! Learn more

10-Day Weather Forecast

Advertisements
Track Severe Weather on mobile